sensor_id;sensor_type;location;lat;lon;timestamp;pressure;altitude;pressure_sealevel;temperature;humidity
80678;BME280;70042;52.494;5.502;2024-03-02T00:01:06;99918.09;;;17.59;61.74
80678;BME280;70042;52.494;5.502;2024-03-02T00:03:32;99917.25;;;17.59;61.91
80678;BME280;70042;52.494;5.502;2024-03-02T00:05:58;99919.06;;;17.58;62.16
80678;BME280;70042;52.494;5.502;2024-03-02T00:08:25;99917.25;;;17.59;62.04
80678;BME280;70042;52.494;5.502;2024-03-02T00:10:57;99904.00;;;17.61;61.67
80678;BME280;70042;52.494;5.502;2024-03-02T00:13:23;99911.84;;;17.62;61.94
80678;BME280;70042;52.494;5.502;2024-03-02T00:15:54;99903.91;;;17.62;61.70
80678;BME280;70042;52.494;5.502;2024-03-02T00:18:39;99911.84;;;17.62;61.65
80678;BME280;70042;52.494;5.502;2024-03-02T00:21:06;99904.78;;;17.63;61.17
80678;BME280;70042;52.494;5.502;2024-03-02T00:23:34;99906.50;;;17.64;61.68
80678;BME280;70042;52.494;5.502;2024-03-02T00:26:00;99907.38;;;17.64;61.57
80678;BME280;70042;52.494;5.502;2024-03-02T00:28:33;99904.78;;;17.63;61.69
80678;BME280;70042;52.494;5.502;2024-03-02T00:31:07;99914.44;;;17.64;61.80
80678;BME280;70042;52.494;5.502;2024-03-02T00:33:43;99910.88;;;17.65;61.74
80678;BME280;70042;52.494;5.502;2024-03-02T00:36:10;99908.28;;;17.63;61.76
80678;BME280;70042;52.494;5.502;2024-03-02T00:38:57;99908.28;;;17.63;61.61
80678;BME280;70042;52.494;5.502;2024-03-02T00:41:24;99925.91;;;17.63;61.47
80678;BME280;70042;52.494;5.502;2024-03-02T00:44:10;99920.63;;;17.63;61.45
80678;BME280;70042;52.494;5.502;2024-03-02T00:46:39;99927.69;;;17.62;61.75
80678;BME280;70042;52.494;5.502;2024-03-02T00:51:36;99929.41;;;17.63;61.59
80678;BME280;70042;52.494;5.502;2024-03-02T00:54:03;99928.56;;;17.63;61.32
80678;BME280;70042;52.494;5.502;2024-03-02T00:56:30;99952.28;;;17.64;61.55
80678;BME280;70042;52.494;5.502;2024-03-02T00:58:56;99945.22;;;17.65;61.41
80678;BME280;70042;52.494;5.502;2024-03-02T01:01:22;99940.84;;;17.64;61.26
80678;BME280;70042;52.494;5.502;2024-03-02T01:03:48;99953.16;;;17.65;61.61
80678;BME280;70042;52.494;5.502;2024-03-02T01:06:14;99960.13;;;17.66;61.32
80678;BME280;70042;52.494;5.502;2024-03-02T01:08:40;99968.06;;;17.66;61.36
80678;BME280;70042;52.494;5.502;2024-03-02T01:11:06;99975.97;;;17.66;61.48
80678;BME280;70042;52.494;5.502;2024-03-02T01:13:31;99988.31;;;17.65;61.61
80678;BME280;70042;52.494;5.502;2024-03-02T01:15:57;99990.97;;;17.65;61.51
80678;BME280;70042;52.494;5.502;2024-03-02T01:18:23;99995.41;;;17.65;61.21
80678;BME280;70042;52.494;5.502;2024-03-02T01:20:49;100001.59;;;17.64;61.10
80678;BME280;70042;52.494;5.502;2024-03-02T01:23:18;100000.75;;;17.63;61.17
80678;BME280;70042;52.494;5.502;2024-03-02T01:25:45;100006.03;;;17.63;61.04
80678;BME280;70042;52.494;5.502;2024-03-02T01:28:11;100000.81;;;17.62;60.93
80678;BME280;70042;52.494;5.502;2024-03-02T01:30:36;100001.66;;;17.62;60.92
80678;BME280;70042;52.494;5.502;2024-03-02T01:33:02;100006.94;;;17.62;61.30
80678;BME280;70042;52.494;5.502;2024-03-02T01:35:31;100003.38;;;17.63;60.92
80678;BME280;70042;52.494;5.502;2024-03-02T01:37:56;99992.81;;;17.63;61.20
80678;BME280;70042;52.494;5.502;2024-03-02T01:40:21;99992.81;;;17.63;61.16
80678;BME280;70042;52.494;5.502;2024-03-02T01:42:48;99991.03;;;17.64;61.02
80678;BME280;70042;52.494;5.502;2024-03-02T01:45:14;99986.66;;;17.63;60.94
80678;BME280;70042;52.494;5.502;2024-03-02T01:47:40;99977.88;;;17.62;60.89
80678;BME280;70042;52.494;5.502;2024-03-02T01:50:06;99988.44;;;17.62;61.21
80678;BME280;70042;52.494;5.502;2024-03-02T01:52:32;99993.81;;;17.61;60.91
80678;BME280;70042;52.494;5.502;2024-03-02T01:54:57;100000.00;;;17.59;60.94
80678;BME280;70042;52.494;5.502;2024-03-02T01:57:23;100015.72;;;17.63;61.04
80678;BME280;70042;52.494;5.502;2024-03-02T01:59:49;100008.75;;;17.62;61.14
80678;BME280;70042;52.494;5.502;2024-03-02T02:02:16;100007.78;;;17.63;60.87
80678;BME280;70042;52.494;5.502;2024-03-02T02:04:41;100005.16;;;17.63;61.05
80678;BME280;70042;52.494;5.502;2024-03-02T02:07:07;100004.25;;;17.64;61.05
80678;BME280;70042;52.494;5.502;2024-03-02T02:09:32;100004.25;;;17.64;60.97
80678;BME280;70042;52.494;5.502;2024-03-02T02:11:58;99995.41;;;17.65;61.03
80678;BME280;70042;52.494;5.502;2024-03-02T02:14:23;99987.50;;;17.65;60.56
80678;BME280;70042;52.494;5.502;2024-03-02T02:16:49;99986.66;;;17.63;60.89
80678;BME280;70042;52.494;5.502;2024-03-02T02:19:14;99990.25;;;17.62;61.01
80678;BME280;70042;52.494;5.502;2024-03-02T02:21:43;99990.25;;;17.62;60.62
80678;BME280;70042;52.494;5.502;2024-03-02T02:24:09;99999.09;;;17.61;61.25
80678;BME280;70042;52.494;5.502;2024-03-02T02:26:34;99993.81;;;17.61;61.15
80678;BME280;70042;52.494;5.502;2024-03-02T02:29:00;99997.34;;;17.59;60.61
80678;BME280;70042;52.494;5.502;2024-03-02T02:31:25;100004.38;;;17.61;60.71
80678;BME280;70042;52.494;5.502;2024-03-02T02:33:51;100004.38;;;17.61;60.57
80678;BME280;70042;52.494;5.502;2024-03-02T02:36:16;100015.81;;;17.61;60.75
80678;BME280;70042;52.494;5.502;2024-03-02T02:38:44;100006.09;;;17.62;60.83
80678;BME280;70042;52.494;5.502;2024-03-02T02:41:12;100006.09;;;17.62;60.83
80678;BME280;70042;52.494;5.502;2024-03-02T02:43:38;100018.38;;;17.63;60.74
80678;BME280;70042;52.494;5.502;2024-03-02T02:46:05;100013.94;;;17.63;60.76
80678;BME280;70042;52.494;5.502;2024-03-02T02:48:30;100003.47;;;17.62;60.55
80678;BME280;70042;52.494;5.502;2024-03-02T02:50:55;99998.16;;;17.62;60.72
80678;BME280;70042;52.494;5.502;2024-03-02T02:53:21;100007.91;;;17.59;60.73
80678;BME280;70042;52.494;5.502;2024-03-02T02:55:47;100011.50;;;17.58;60.51
80678;BME280;70042;52.494;5.502;2024-03-02T02:58:12;100012.34;;;17.59;60.88
80678;BME280;70042;52.494;5.502;2024-03-02T03:00:38;100016.78;;;17.58;60.87
80678;BME280;70042;52.494;5.502;2024-03-02T03:03:03;100021.13;;;17.59;60.56
80678;BME280;70042;52.494;5.502;2024-03-02T03:05:29;100025.53;;;17.59;60.39
80678;BME280;70042;52.494;5.502;2024-03-02T03:07:54;100024.63;;;17.60;60.63
80678;BME280;70042;52.494;5.502;2024-03-02T03:10:20;100024.59;;;17.62;60.47
80678;BME280;70042;52.494;5.502;2024-03-02T03:12:48;100040.47;;;17.60;60.37
80678;BME280;70042;52.494;5.502;2024-03-02T03:15:14;100044.00;;;17.61;60.69
80678;BME280;70042;52.494;5.502;2024-03-02T03:17:41;100044.00;;;17.61;60.71
80678;BME280;70042;52.494;5.502;2024-03-02T03:20:08;100051.00;;;17.62;60.82
80678;BME280;70042;52.494;5.502;2024-03-02T03:22:37;100050.19;;;17.59;60.51
80678;BME280;70042;52.494;5.502;2024-03-02T03:25:03;100053.75;;;17.58;60.76
80678;BME280;70042;52.494;5.502;2024-03-02T03:27:28;100054.66;;;17.57;60.79
80678;BME280;70042;52.494;5.502;2024-03-02T03:29:54;100048.47;;;17.58;60.59
80678;BME280;70042;52.494;5.502;2024-03-02T03:32:20;100048.47;;;17.58;60.44
80678;BME280;70042;52.494;5.502;2024-03-02T03:34:45;100053.75;;;17.58;60.84
80678;BME280;70042;52.494;5.502;2024-03-02T03:37:11;100052.81;;;17.59;60.91
80678;BME280;70042;52.494;5.502;2024-03-02T03:39:36;100049.31;;;17.59;60.85
80678;BME280;70042;52.494;5.502;2024-03-02T03:42:02;100048.41;;;17.60;60.70
80678;BME280;70042;52.494;5.502;2024-03-02T03:44:27;100057.19;;;17.61;60.72
80678;BME280;70042;52.494;5.502;2024-03-02T03:46:53;100059.88;;;17.59;60.68
80678;BME280;70042;52.494;5.502;2024-03-02T03:49:18;100056.31;;;17.60;60.66
80678;BME280;70042;52.494;5.502;2024-03-02T03:51:44;100060.75;;;17.59;60.46
80678;BME280;70042;52.494;5.502;2024-03-02T03:54:09;100063.47;;;17.58;60.87
80678;BME280;70042;52.494;5.502;2024-03-02T03:56:36;100072.28;;;17.57;60.76
80678;BME280;70042;52.494;5.502;2024-03-02T03:59:02;100064.41;;;17.55;60.97
80678;BME280;70042;52.494;5.502;2024-03-02T04:01:27;100067.00;;;17.57;60.64
80678;BME280;70042;52.494;5.502;2024-03-02T04:03:52;100063.50;;;17.56;60.76
80678;BME280;70042;52.494;5.502;2024-03-02T04:06:18;100063.47;;;17.58;60.50
80678;BME280;70042;52.494;5.502;2024-03-02T04:08:43;100064.31;;;17.58;60.45
80678;BME280;70042;52.494;5.502;2024-03-02T04:11:09;100070.44;;;17.59;60.53
80678;BME280;70042;52.494;5.502;2024-03-02T04:13:34;100071.31;;;17.59;60.78
80678;BME280;70042;52.494;5.502;2024-03-02T04:16:00;100074.91;;;17.58;60.89
80678;BME280;70042;52.494;5.502;2024-03-02T04:18:25;100068.75;;;17.58;60.83
80678;BME280;70042;52.494;5.502;2024-03-02T04:20:50;100072.31;;;17.55;60.70
80678;BME280;70042;52.494;5.502;2024-03-02T04:23:16;100084.69;;;17.55;60.62
80678;BME280;70042;52.494;5.502;2024-03-02T04:25:41;100092.63;;;17.55;60.67
80678;BME280;70042;52.494;5.502;2024-03-02T04:28:07;100081.16;;;17.54;61.07
80678;BME280;70042;52.494;5.502;2024-03-02T04:30:32;100082.94;;;17.54;60.87
80678;BME280;70042;52.494;5.502;2024-03-02T04:32:58;100090.00;;;17.55;60.97
80678;BME280;70042;52.494;5.502;2024-03-02T04:35:23;100089.91;;;17.56;61.06
80678;BME280;70042;52.494;5.502;2024-03-02T04:37:50;100088.13;;;17.57;60.75
80678;BME280;70042;52.494;5.502;2024-03-02T04:40:15;100096.94;;;17.57;60.73
80678;BME280;70042;52.494;5.502;2024-03-02T04:42:41;100094.28;;;17.57;60.41
80678;BME280;70042;52.494;5.502;2024-03-02T04:45:07;100100.47;;;17.56;60.72
80678;BME280;70042;52.494;5.502;2024-03-02T04:47:32;100097.84;;;17.56;60.36
80678;BME280;70042;52.494;5.502;2024-03-02T04:49:58;100101.38;;;17.55;60.93
80678;BME280;70042;52.494;5.502;2024-03-02T04:52:23;100105.84;;;17.53;60.73
80678;BME280;70042;52.494;5.502;2024-03-02T04:54:49;100101.44;;;17.54;60.89
80678;BME280;70042;52.494;5.502;2024-03-02T04:57:32;100113.75;;;17.53;60.92
80678;BME280;70042;52.494;5.502;2024-03-02T04:59:58;100104.06;;;17.54;60.75
80678;BME280;70042;52.494;5.502;2024-03-02T05:02:23;100106.75;;;17.52;60.77
80678;BME280;70042;52.494;5.502;2024-03-02T05:04:49;100105.84;;;17.55;60.52
80678;BME280;70042;52.494;5.502;2024-03-02T05:07:14;100107.56;;;17.54;60.62
80678;BME280;70042;52.494;5.502;2024-03-02T05:09:40;100104.94;;;17.54;60.62
80678;BME280;70042;52.494;5.502;2024-03-02T05:12:05;100106.66;;;17.55;60.63
80678;BME280;70042;52.494;5.502;2024-03-02T05:14:49;100107.56;;;17.54;60.74
80678;BME280;70042;52.494;5.502;2024-03-02T05:17:14;100109.38;;;17.52;60.56
80678;BME280;70042;52.494;5.502;2024-03-02T05:19:40;100107.63;;;17.53;60.45
80678;BME280;70042;52.494;5.502;2024-03-02T05:22:05;100112.03;;;17.52;60.60
80678;BME280;70042;52.494;5.502;2024-03-02T05:24:31;100122.59;;;17.52;60.27
80678;BME280;70042;52.494;5.502;2024-03-02T05:26:56;100123.53;;;17.51;60.61
80678;BME280;70042;52.494;5.502;2024-03-02T05:29:22;100119.94;;;17.52;60.52
80678;BME280;70042;52.494;5.502;2024-03-02T05:31:48;100117.31;;;17.52;60.70
80678;BME280;70042;52.494;5.502;2024-03-02T05:34:13;100122.59;;;17.52;60.73
80678;BME280;70042;52.494;5.502;2024-03-02T05:36:39;100120.78;;;17.54;60.39
80678;BME280;70042;52.494;5.502;2024-03-02T05:39:05;100131.34;;;17.54;60.30
80678;BME280;70042;52.494;5.502;2024-03-02T05:41:34;100124.31;;;17.53;60.86
80678;BME280;70042;52.494;5.502;2024-03-02T05:44:00;100122.59;;;17.52;60.72
80678;BME280;70042;52.494;5.502;2024-03-02T05:46:25;100129.59;;;17.53;60.23
80678;BME280;70042;52.494;5.502;2024-03-02T05:48:50;100130.50;;;17.52;60.24
80678;BME280;70042;52.494;5.502;2024-03-02T05:51:16;100130.50;;;17.52;60.35
80678;BME280;70042;52.494;5.502;2024-03-02T05:53:41;100126.19;;;17.51;60.39
80678;BME280;70042;52.494;5.502;2024-03-02T05:56:07;100122.66;;;17.51;60.54
80678;BME280;70042;52.494;5.502;2024-03-02T05:58:33;100135.88;;;17.51;60.24
80678;BME280;70042;52.494;5.502;2024-03-02T06:01:17;100126.19;;;17.51;60.46
80678;BME280;70042;52.494;5.502;2024-03-02T06:03:43;100131.47;;;17.51;60.78
80678;BME280;70042;52.494;5.502;2024-03-02T06:06:09;100135.00;;;17.50;60.58
80678;BME280;70042;52.494;5.502;2024-03-02T06:08:34;100141.16;;;17.51;60.63
80678;BME280;70042;52.494;5.502;2024-03-02T06:11:00;100137.59;;;17.52;60.18
80678;BME280;70042;52.494;5.502;2024-03-02T06:13:26;100151.66;;;17.52;60.63
80678;BME280;70042;52.494;5.502;2024-03-02T06:15:52;100147.31;;;17.51;60.13
80678;BME280;70042;52.494;5.502;2024-03-02T06:18:17;100148.22;;;17.50;60.51
80678;BME280;70042;52.494;5.502;2024-03-02T06:20:43;100155.25;;;17.50;60.48
80678;BME280;70042;52.494;5.502;2024-03-02T06:23:08;100157.03;;;17.49;60.23
80678;BME280;70042;52.494;5.502;2024-03-02T06:25:33;100159.69;;;17.49;60.62
80678;BME280;70042;52.494;5.502;2024-03-02T06:27:59;100159.69;;;17.49;60.56
80678;BME280;70042;52.494;5.502;2024-03-02T06:30:24;100163.25;;;17.48;60.17
80678;BME280;70042;52.494;5.502;2024-03-02T06:32:50;100170.25;;;17.49;60.32
80678;BME280;70042;52.494;5.502;2024-03-02T06:35:15;100170.25;;;17.49;60.55
80678;BME280;70042;52.494;5.502;2024-03-02T06:37:40;100171.97;;;17.50;60.46
80678;BME280;70042;52.494;5.502;2024-03-02T06:40:08;100171.06;;;17.51;60.25
80678;BME280;70042;52.494;5.502;2024-03-02T06:42:34;100184.38;;;17.48;60.59
80678;BME280;70042;52.494;5.502;2024-03-02T06:45:00;100189.66;;;17.48;60.23
80678;BME280;70042;52.494;5.502;2024-03-02T06:47:26;100175.63;;;17.46;60.57
80678;BME280;70042;52.494;5.502;2024-03-02T06:49:51;100186.16;;;17.48;60.47
80678;BME280;70042;52.494;5.502;2024-03-02T06:52:18;100188.81;;;17.48;60.65
80678;BME280;70042;52.494;5.502;2024-03-02T06:54:43;100189.72;;;17.47;60.40
80678;BME280;70042;52.494;5.502;2024-03-02T06:57:08;100186.19;;;17.46;60.65
80678;BME280;70042;52.494;5.502;2024-03-02T06:59:34;100189.72;;;17.47;60.30
80678;BME280;70042;52.494;5.502;2024-03-02T07:01:59;100189.66;;;17.48;60.54
80678;BME280;70042;52.494;5.502;2024-03-02T07:04:25;100186.09;;;17.49;60.25
80678;BME280;70042;52.494;5.502;2024-03-02T07:06:50;100188.72;;;17.49;60.40
80678;BME280;70042;52.494;5.502;2024-03-02T07:09:16;100199.25;;;17.51;60.37
80678;BME280;70042;52.494;5.502;2024-03-02T07:11:42;100197.53;;;17.50;60.20
80678;BME280;70042;52.494;5.502;2024-03-02T07:14:07;100207.22;;;17.49;60.20
80678;BME280;70042;52.494;5.502;2024-03-02T07:16:33;100201.09;;;17.49;60.36
80678;BME280;70042;52.494;5.502;2024-03-02T07:18:59;100197.59;;;17.48;60.22
80678;BME280;70042;52.494;5.502;2024-03-02T07:21:27;100201.94;;;17.49;60.59
80678;BME280;70042;52.494;5.502;2024-03-02T07:23:53;100201.09;;;17.49;60.29
80678;BME280;70042;52.494;5.502;2024-03-02T07:26:19;100203.75;;;17.49;60.34
80678;BME280;70042;52.494;5.502;2024-03-02T07:28:47;100199.28;;;17.49;60.52
80678;BME280;70042;52.494;5.502;2024-03-02T07:31:13;100214.22;;;17.50;60.60
80678;BME280;70042;52.494;5.502;2024-03-02T07:33:39;100208.94;;;17.50;60.31
80678;BME280;70042;52.494;5.502;2024-03-02T07:36:04;100206.28;;;17.52;60.14
80678;BME280;70042;52.494;5.502;2024-03-02T07:38:30;100207.13;;;17.52;60.25
80678;BME280;70042;52.494;5.502;2024-03-02T07:40:57;100215.91;;;17.53;60.34
80678;BME280;70042;52.494;5.502;2024-03-02T07:43:23;100220.31;;;17.52;60.12
80678;BME280;70042;52.494;5.502;2024-03-02T07:45:48;100223.91;;;17.51;60.26
80678;BME280;70042;52.494;5.502;2024-03-02T07:48:14;100217.69;;;17.52;60.58
80678;BME280;70042;52.494;5.502;2024-03-02T07:50:40;100228.25;;;17.52;60.45
80678;BME280;70042;52.494;5.502;2024-03-02T07:53:05;100229.19;;;17.51;60.35
80678;BME280;70042;52.494;5.502;2024-03-02T07:55:32;100232.69;;;17.52;60.58
80678;BME280;70042;52.494;5.502;2024-03-02T07:57:58;100230.03;;;17.52;60.44
80678;BME280;70042;52.494;5.502;2024-03-02T08:00:24;100242.28;;;17.54;60.32
80678;BME280;70042;52.494;5.502;2024-03-02T08:02:51;100235.25;;;17.55;60.34
80678;BME280;70042;52.494;5.502;2024-03-02T08:05:17;100236.09;;;17.55;60.20
80678;BME280;70042;52.494;5.502;2024-03-02T08:07:44;100236.06;;;17.57;60.36
80678;BME280;70042;52.494;5.502;2024-03-02T08:10:10;100233.44;;;17.55;60.61
80678;BME280;70042;52.494;5.502;2024-03-02T08:12:35;100237.00;;;17.54;60.37
80678;BME280;70042;52.494;5.502;2024-03-02T08:15:01;100240.53;;;17.53;60.74
80678;BME280;70042;52.494;5.502;2024-03-02T08:17:26;100244.00;;;17.55;61.44
80678;BME280;70042;52.494;5.502;2024-03-02T08:19:52;100245.81;;;17.53;60.96
80678;BME280;70042;52.494;5.502;2024-03-02T08:22:18;100253.75;;;17.53;60.92
80678;BME280;70042;52.494;5.502;2024-03-02T08:24:43;100240.53;;;17.53;60.50
80678;BME280;70042;52.494;5.502;2024-03-02T08:27:09;100243.19;;;17.53;60.81
80678;BME280;70042;52.494;5.502;2024-03-02T08:29:35;100245.81;;;17.53;60.73
80678;BME280;70042;52.494;5.502;2024-03-02T08:32:00;100243.19;;;17.53;60.76
80678;BME280;70042;52.494;5.502;2024-03-02T08:34:26;100241.44;;;17.52;60.81
80678;BME280;70042;52.494;5.502;2024-03-02T08:36:51;100247.56;;;17.54;61.03
80678;BME280;70042;52.494;5.502;2024-03-02T08:39:17;100246.69;;;17.54;61.07
80678;BME280;70042;52.494;5.502;2024-03-02T08:41:44;100249.38;;;17.52;61.11
80678;BME280;70042;52.494;5.502;2024-03-02T08:44:10;100252.94;;;17.51;61.08
80678;BME280;70042;52.494;5.502;2024-03-02T08:46:35;100258.22;;;17.51;61.13
80678;BME280;70042;52.494;5.502;2024-03-02T08:49:01;100252.13;;;17.49;61.33
80678;BME280;70042;52.494;5.502;2024-03-02T08:51:27;100251.31;;;17.47;61.00
80678;BME280;70042;52.494;5.502;2024-03-02T08:53:52;100255.84;;;17.44;60.94
80678;BME280;70042;52.494;5.502;2024-03-02T08:56:18;100256.81;;;17.41;60.56
80678;BME280;70042;52.494;5.502;2024-03-02T08:58:45;100254.16;;;17.41;60.65
80678;BME280;70042;52.494;5.502;2024-03-02T09:01:11;100253.38;;;17.39;60.52
80678;BME280;70042;52.494;5.502;2024-03-02T09:03:37;100262.09;;;17.41;60.18
80678;BME280;70042;52.494;5.502;2024-03-02T09:06:03;100263.94;;;17.39;60.13
80678;BME280;70042;52.494;5.502;2024-03-02T09:08:28;100256.91;;;17.38;60.06
80678;BME280;70042;52.494;5.502;2024-03-02T09:10:55;100257.78;;;17.39;59.86
80678;BME280;70042;52.494;5.502;2024-03-02T09:13:21;100260.34;;;17.40;59.50
80678;BME280;70042;52.494;5.502;2024-03-02T09:15:47;100255.06;;;17.40;59.13
80678;BME280;70042;52.494;5.502;2024-03-02T09:18:13;100258.66;;;17.39;59.29
80678;BME280;70042;52.494;5.502;2024-03-02T09:20:38;100241.88;;;17.40;59.14
80678;BME280;70042;52.494;5.502;2024-03-02T09:23:04;100248.00;;;17.41;59.41
80678;BME280;70042;52.494;5.502;2024-03-02T09:25:29;100249.78;;;17.40;60.01
80678;BME280;70042;52.494;5.502;2024-03-02T09:27:55;100250.53;;;17.45;59.95
80678;BME280;70042;52.494;5.502;2024-03-02T09:30:20;100244.19;;;17.49;59.69
80678;BME280;70042;52.494;5.502;2024-03-02T09:32:45;100247.66;;;17.51;59.92
80678;BME280;70042;52.494;5.502;2024-03-02T09:35:11;100244.00;;;17.55;59.68
80678;BME280;70042;52.494;5.502;2024-03-02T09:37:37;100254.44;;;17.60;59.19
80678;BME280;70042;52.494;5.502;2024-03-02T09:40:03;100255.19;;;17.64;59.93
80678;BME280;70042;52.494;5.502;2024-03-02T09:42:29;100256.00;;;17.66;59.51
80678;BME280;70042;52.494;5.502;2024-03-02T09:44:55;100259.47;;;17.68;60.34
80678;BME280;70042;52.494;5.502;2024-03-02T09:47:20;100262.00;;;17.71;60.17
80678;BME280;70042;52.494;5.502;2024-03-02T09:49:46;100259.31;;;17.72;60.01
80678;BME280;70042;52.494;5.502;2024-03-02T09:52:12;100265.34;;;17.76;59.71
80678;BME280;70042;52.494;5.502;2024-03-02T09:54:39;100260.84;;;17.78;60.14
80678;BME280;70042;52.494;5.502;2024-03-02T09:57:05;100273.16;;;17.79;59.93
80678;BME280;70042;52.494;5.502;2024-03-02T09:59:30;100270.53;;;17.79;59.90
80678;BME280;70042;52.494;5.502;2024-03-02T10:02:00;100270.41;;;17.82;60.13
80678;BME280;70042;52.494;5.502;2024-03-02T10:04:27;100266.03;;;17.81;60.28
80678;BME280;70042;52.494;5.502;2024-03-02T10:07:15;100262.59;;;17.79;60.91
80678;BME280;70042;52.494;5.502;2024-03-02T10:09:42;100271.31;;;17.81;62.12
80678;BME280;70042;52.494;5.502;2024-03-02T10:12:09;100268.59;;;17.84;61.62
80678;BME280;70042;52.494;5.502;2024-03-02T10:14:35;100273.94;;;17.82;60.84
80678;BME280;70042;52.494;5.502;2024-03-02T10:17:04;100275.81;;;17.79;60.70
80678;BME280;70042;52.494;5.502;2024-03-02T10:19:30;100268.09;;;17.73;58.41
80678;BME280;70042;52.494;5.502;2024-03-02T10:22:04;100270.16;;;17.65;58.38
80678;BME280;70042;52.494;5.502;2024-03-02T10:24:43;100261.59;;;17.56;58.13
80678;BME280;70042;52.494;5.502;2024-03-02T10:27:30;100254.75;;;17.49;57.39
80678;BME280;70042;52.494;5.502;2024-03-02T10:29:56;100251.09;;;17.53;59.73
80678;BME280;70042;52.494;5.502;2024-03-02T10:32:22;100261.69;;;17.53;58.17
80678;BME280;70042;52.494;5.502;2024-03-02T10:34:48;100260.72;;;17.56;57.53
80678;BME280;70042;52.494;5.502;2024-03-02T10:37:15;100263.34;;;17.57;57.12
80678;BME280;70042;52.494;5.502;2024-03-02T10:39:42;100268.53;;;17.61;57.92
80678;BME280;70042;52.494;5.502;2024-03-02T10:42:08;100266.69;;;17.63;57.64
80678;BME280;70042;52.494;5.502;2024-03-02T10:44:34;100256.09;;;17.63;57.80
80678;BME280;70042;52.494;5.502;2024-03-02T10:47:01;100252.50;;;17.65;57.66
80678;BME280;70042;52.494;5.502;2024-03-02T10:49:31;100246.25;;;17.68;57.70
80678;BME280;70042;52.494;5.502;2024-03-02T10:52:00;100240.13;;;17.67;57.62
80678;BME280;70042;52.494;5.502;2024-03-02T10:54:26;100249.81;;;17.67;57.75
80678;BME280;70042;52.494;5.502;2024-03-02T10:56:56;100238.38;;;17.66;57.60
80678;BME280;70042;52.494;5.502;2024-03-02T10:59:33;100238.34;;;17.68;57.29
80678;BME280;70042;52.494;5.502;2024-03-02T11:02:00;100238.34;;;17.68;57.79
80678;BME280;70042;52.494;5.502;2024-03-02T11:04:27;100240.97;;;17.68;58.16
80678;BME280;70042;52.494;5.502;2024-03-02T11:07:07;100240.91;;;17.69;57.78
80678;BME280;70042;52.494;5.502;2024-03-02T11:09:34;100235.59;;;17.71;57.93
80678;BME280;70042;52.494;5.502;2024-03-02T11:12:10;100239.09;;;17.71;58.02
80678;BME280;70042;52.494;5.502;2024-03-02T11:14:41;100230.31;;;17.71;58.03
80678;BME280;70042;52.494;5.502;2024-03-02T11:17:09;100235.63;;;17.69;56.98
80678;BME280;70042;52.494;5.502;2024-03-02T11:19:35;100234.94;;;17.64;56.05
80678;BME280;70042;52.494;5.502;2024-03-02T11:22:02;100242.09;;;17.61;56.11
80678;BME280;70042;52.494;5.502;2024-03-02T11:24:29;100229.91;;;17.56;52.52
80678;BME280;70042;52.494;5.502;2024-03-02T11:26:58;100228.53;;;17.45;50.67
80678;BME280;70042;52.494;5.502;2024-03-02T11:32:15;100223.00;;;17.26;47.98
80678;BME280;70042;52.494;5.502;2024-03-02T11:34:42;100213.34;;;17.25;48.39
80678;BME280;70042;52.494;5.502;2024-03-02T11:37:19;100237.09;;;17.25;49.39
80678;BME280;70042;52.494;5.502;2024-03-02T11:39:46;100227.34;;;17.27;49.82
80678;BME280;70042;52.494;5.502;2024-03-02T11:42:13;100231.50;;;17.34;50.01
80678;BME280;70042;52.494;5.502;2024-03-02T11:44:41;100227.78;;;17.40;50.17
80678;BME280;70042;52.494;5.502;2024-03-02T11:47:09;100224.00;;;17.48;49.49
80678;BME280;70042;52.494;5.502;2024-03-02T11:49:46;100232.53;;;17.56;49.91
80678;BME280;70042;52.494;5.502;2024-03-02T11:52:13;100230.53;;;17.65;50.51
80678;BME280;70042;52.494;5.502;2024-03-02T11:54:44;100234.75;;;17.69;50.98
80678;BME280;70042;52.494;5.502;2024-03-02T11:57:21;100232.09;;;17.70;50.97
80678;BME280;70042;52.494;5.502;2024-03-02T11:59:50;100223.06;;;17.76;51.92
80678;BME280;70042;52.494;5.502;2024-03-02T12:02:19;100220.31;;;17.79;51.71
80678;BME280;70042;52.494;5.502;2024-03-02T12:04:46;100220.22;;;17.82;51.96
80678;BME280;70042;52.494;5.502;2024-03-02T12:07:21;100213.94;;;17.84;52.66
80678;BME280;70042;52.494;5.502;2024-03-02T12:09:48;100216.31;;;17.92;52.86
80678;BME280;70042;52.494;5.502;2024-03-02T12:12:13;100208.31;;;17.93;52.88
80678;BME280;70042;52.494;5.502;2024-03-02T12:14:52;100201.22;;;17.95;52.87
80678;BME280;70042;52.494;5.502;2024-03-02T12:17:20;100201.97;;;17.99;52.96
80678;BME280;70042;52.494;5.502;2024-03-02T12:19:46;100196.59;;;18.02;53.32
80678;BME280;70042;52.494;5.502;2024-03-02T12:22:11;100203.56;;;18.03;53.79
80678;BME280;70042;52.494;5.502;2024-03-02T12:24:37;100211.47;;;18.04;54.04
80678;BME280;70042;52.494;5.502;2024-03-02T12:27:04;100208.81;;;18.04;53.89
80678;BME280;70042;52.494;5.502;2024-03-02T12:29:30;100200.78;;;18.07;53.96
80678;BME280;70042;52.494;5.502;2024-03-02T12:31:56;100200.78;;;18.07;54.21
80678;BME280;70042;52.494;5.502;2024-03-02T12:34:22;100192.81;;;18.09;54.61
80678;BME280;70042;52.494;5.502;2024-03-02T12:36:48;100199.75;;;18.11;55.21
80678;BME280;70042;52.494;5.502;2024-03-02T12:39:17;100197.84;;;18.15;55.21
80678;BME280;70042;52.494;5.502;2024-03-02T12:41:43;100200.38;;;18.18;54.72
80678;BME280;70042;52.494;5.502;2024-03-02T12:44:08;100201.06;;;18.23;54.98
80678;BME280;70042;52.494;5.502;2024-03-02T12:46:34;100192.97;;;18.28;55.54
80678;BME280;70042;52.494;5.502;2024-03-02T12:49:10;100187.69;;;18.28;55.34
80678;BME280;70042;52.494;5.502;2024-03-02T12:51:37;100193.69;;;18.31;55.55
80678;BME280;70042;52.494;5.502;2024-03-02T12:54:03;100198.16;;;18.31;55.52
80678;BME280;70042;52.494;5.502;2024-03-02T12:56:30;100175.19;;;18.31;55.96